createdAt,value
2022-07-28T00:00:03.701Z,0.80
2022-07-28T00:02:30.535Z,0.97
2022-07-28T00:04:57.358Z,1.13
2022-07-28T00:07:24.217Z,1.10
2022-07-28T00:09:51.674Z,0.90
2022-07-28T00:12:19.539Z,1.00
2022-07-28T00:14:46.340Z,1.10
2022-07-28T00:17:13.162Z,0.90
2022-07-28T00:19:39.897Z,0.80
2022-07-28T00:22:07.510Z,0.90
2022-07-28T00:24:34.354Z,0.97
2022-07-28T00:27:01.237Z,1.00
2022-07-28T00:29:49.883Z,1.27
2022-07-28T00:32:15.367Z,1.00
2022-07-28T00:34:42.256Z,1.03
2022-07-28T00:37:09.518Z,0.80
2022-07-28T00:39:41.647Z,1.00
2022-07-28T00:42:09.143Z,1.10
2022-07-28T00:44:36.238Z,1.10
2022-07-28T00:47:03.065Z,0.73
2022-07-28T00:49:30.006Z,0.83
2022-07-28T00:51:57.291Z,1.00
2022-07-28T00:54:24.054Z,1.10
2022-07-28T00:56:51.043Z,1.00
2022-07-28T00:59:17.895Z,1.40
2022-07-28T01:01:44.803Z,1.10
2022-07-28T01:04:12.105Z,1.20
2022-07-28T01:07:05.236Z,0.93
2022-07-28T01:10:03.153Z,0.93
2022-07-28T01:12:32.947Z,1.30
2022-07-28T01:15:08.425Z,1.10
2022-07-28T01:17:41.010Z,0.90
2022-07-28T01:20:20.419Z,1.13
2022-07-28T01:23:14.314Z,1.03
2022-07-28T01:25:54.195Z,1.03
2022-07-28T01:28:32.884Z,0.97
2022-07-28T01:31:05.074Z,1.00
2022-07-28T01:33:38.601Z,1.10
2022-07-28T01:36:29.341Z,1.07
2022-07-28T01:38:58.556Z,1.00
2022-07-28T01:41:28.873Z,1.27
2022-07-28T01:44:01.583Z,1.60
2022-07-28T01:46:29.102Z,1.00
2022-07-28T01:48:58.378Z,1.00
2022-07-28T01:51:29.279Z,1.07
2022-07-28T01:53:59.179Z,1.00
2022-07-28T01:56:28.383Z,1.27
2022-07-28T01:58:59.757Z,0.90
2022-07-28T02:01:27.744Z,1.27
2022-07-28T02:03:56.447Z,1.10
2022-07-28T02:06:23.838Z,1.30
2022-07-28T02:08:52.786Z,1.10
2022-07-28T02:11:38.089Z,1.00
2022-07-28T02:14:06.145Z,1.20
2022-07-28T02:16:32.938Z,1.10
2022-07-28T02:19:02.334Z,1.07
2022-07-28T02:21:31.302Z,1.30
2022-07-28T02:23:59.815Z,1.00
2022-07-28T02:26:31.480Z,1.00
2022-07-28T02:29:01.663Z,1.13
2022-07-28T02:31:41.977Z,1.30
2022-07-28T02:34:12.400Z,1.10
2022-07-28T02:36:44.934Z,1.20
2022-07-28T02:39:24.142Z,1.60
2022-07-28T02:42:01.074Z,1.00
2022-07-28T02:44:35.344Z,1.20
2022-07-28T02:47:05.967Z,1.20
2022-07-28T02:49:35.027Z,1.20
2022-07-28T02:52:04.731Z,1.03
2022-07-28T02:54:33.279Z,1.17
2022-07-28T02:57:01.192Z,1.37
2022-07-28T02:59:29.198Z,1.50
2022-07-28T03:01:57.012Z,1.53
2022-07-28T03:04:43.999Z,1.20
2022-07-28T03:07:11.336Z,1.50
2022-07-28T03:09:45.788Z,1.20
2022-07-28T03:12:13.209Z,1.50
2022-07-28T03:14:40.165Z,1.17
2022-07-28T03:17:07.264Z,1.33
2022-07-28T03:19:34.763Z,1.27
2022-07-28T03:22:01.999Z,1.40
2022-07-28T03:24:32.439Z,1.03
2022-07-28T03:27:05.588Z,1.17
2022-07-28T03:29:34.615Z,1.23
2022-07-28T03:32:01.736Z,1.10
2022-07-28T03:34:29.589Z,1.20
2022-07-28T03:37:03.217Z,1.17
2022-07-28T03:39:33.532Z,0.90
2022-07-28T03:42:02.238Z,1.30
2022-07-28T03:44:29.699Z,1.37
2022-07-28T03:46:56.825Z,1.43
2022-07-28T03:49:23.690Z,1.23
2022-07-28T03:51:50.466Z,1.40
2022-07-28T03:54:17.370Z,1.57
2022-07-28T03:56:44.337Z,1.40
2022-07-28T03:59:11.420Z,1.20
2022-07-28T04:01:38.496Z,1.33
2022-07-28T04:04:05.940Z,2.07
2022-07-28T04:06:32.695Z,1.70
2022-07-28T04:08:59.450Z,1.47
2022-07-28T04:11:26.300Z,1.90
2022-07-28T04:13:53.510Z,1.40
2022-07-28T04:16:20.412Z,1.20
2022-07-28T04:18:49.187Z,1.40
2022-07-28T04:21:16.257Z,1.07
2022-07-28T04:23:43.089Z,1.37
2022-07-28T04:26:09.812Z,1.53
2022-07-28T04:28:36.555Z,1.63
2022-07-28T04:31:03.333Z,1.43
2022-07-28T04:33:30.700Z,1.60
2022-07-28T04:35:57.548Z,1.60
2022-07-28T04:38:24.231Z,1.50
2022-07-28T04:40:50.940Z,1.50
2022-07-28T04:43:17.978Z,1.60
2022-07-28T04:45:53.921Z,1.40
2022-07-28T04:48:22.650Z,1.80
2022-07-28T04:50:51.165Z,1.97
2022-07-28T04:53:18.529Z,1.50
2022-07-28T04:55:45.447Z,1.40
2022-07-28T04:58:13.470Z,1.53
2022-07-28T05:00:40.232Z,1.57
2022-07-28T05:03:06.901Z,2.20
2022-07-28T05:05:33.721Z,1.50
2022-07-28T05:08:00.400Z,1.60
2022-07-28T05:10:27.420Z,1.50
2022-07-28T05:12:54.524Z,1.70
2022-07-28T05:15:21.545Z,1.93
2022-07-28T05:17:49.685Z,1.57
2022-07-28T05:20:17.358Z,1.77
2022-07-28T05:22:46.383Z,1.50
2022-07-28T05:25:21.339Z,1.80
2022-07-28T05:27:49.097Z,1.80
2022-07-28T05:30:17.029Z,1.60
2022-07-28T05:32:45.337Z,1.83
2022-07-28T05:35:12.580Z,1.80
2022-07-28T05:37:39.296Z,1.70
2022-07-28T05:40:13.585Z,1.50
2022-07-28T05:42:41.953Z,2.00
2022-07-28T05:45:16.468Z,2.20
2022-07-28T05:47:52.444Z,1.93
2022-07-28T05:50:20.990Z,2.07
2022-07-28T05:52:48.774Z,1.60
2022-07-28T05:55:17.668Z,2.03
2022-07-28T05:57:44.721Z,1.90
2022-07-28T06:00:16.604Z,2.17
2022-07-28T06:02:45.779Z,2.10
2022-07-28T06:05:13.770Z,2.20
2022-07-28T06:07:43.259Z,1.90
2022-07-28T06:10:16.731Z,2.07
2022-07-28T06:12:48.744Z,2.20
2022-07-28T06:15:19.011Z,2.47
2022-07-28T06:17:45.715Z,2.67
2022-07-28T06:20:13.663Z,2.40
2022-07-28T06:22:49.741Z,2.40
2022-07-28T06:25:19.823Z,2.80
2022-07-28T06:27:48.247Z,2.57
2022-07-28T06:30:15.538Z,2.47
2022-07-28T06:32:42.719Z,3.17
2022-07-28T06:35:10.893Z,3.13
2022-07-28T06:37:38.030Z,2.90
2022-07-28T06:40:05.270Z,2.70
2022-07-28T06:42:31.953Z,3.80
2022-07-28T06:44:59.850Z,2.80
2022-07-28T06:47:27.193Z,3.30
2022-07-28T06:49:53.855Z,3.60
2022-07-28T06:52:21.975Z,3.67
2022-07-28T06:54:52.911Z,3.57
2022-07-28T06:57:21.405Z,3.23
2022-07-28T06:59:49.554Z,3.33
2022-07-28T07:02:17.555Z,3.40
2022-07-28T07:04:44.950Z,3.97
2022-07-28T07:07:16.854Z,3.57
2022-07-28T07:09:44.434Z,3.80
2022-07-28T07:12:11.205Z,3.50
2022-07-28T07:14:38.217Z,3.33
2022-07-28T07:17:04.945Z,4.37
2022-07-28T07:19:31.637Z,3.90
2022-07-28T07:21:58.348Z,4.00
2022-07-28T07:24:25.340Z,4.47
2022-07-28T07:26:52.121Z,4.50
2022-07-28T07:29:19.812Z,4.10
2022-07-28T07:31:46.625Z,3.77
2022-07-28T07:34:19.387Z,3.90
2022-07-28T07:36:46.265Z,3.80
2022-07-28T07:39:12.999Z,3.50
2022-07-28T07:41:39.723Z,4.47
2022-07-28T07:44:06.469Z,4.10
2022-07-28T07:46:33.226Z,3.90
2022-07-28T07:49:00.077Z,4.13
2022-07-28T07:51:26.851Z,3.60
2022-07-28T07:53:53.546Z,3.70
2022-07-28T07:56:20.260Z,4.13
2022-07-28T07:58:46.985Z,4.07
2022-07-28T08:01:13.802Z,3.97
2022-07-28T08:03:40.712Z,3.77
2022-07-28T08:06:07.689Z,4.03
2022-07-28T08:08:41.625Z,4.38
2022-07-28T08:11:12.368Z,4.03
2022-07-28T08:13:39.079Z,4.53
2022-07-28T08:16:06.206Z,4.15
2022-07-28T08:18:32.956Z,4.53
2022-07-28T08:20:59.748Z,3.72
2022-07-28T08:23:26.519Z,4.22
2022-07-28T08:25:53.609Z,3.92
2022-07-28T08:28:20.317Z,4.57
2022-07-28T08:30:47.001Z,3.92
2022-07-28T08:33:13.704Z,3.78
2022-07-28T08:35:41.226Z,3.55
2022-07-28T08:38:07.969Z,3.85
2022-07-28T08:40:38.245Z,4.30
2022-07-28T08:43:07.753Z,4.00
2022-07-28T08:45:37.222Z,3.55
2022-07-28T08:48:08.245Z,3.45
2022-07-28T08:50:36.828Z,4.20
2022-07-28T08:53:04.702Z,3.40
2022-07-28T08:55:32.381Z,4.13
2022-07-28T08:58:00.500Z,3.97
2022-07-28T09:00:27.505Z,3.97
2022-07-28T09:02:55.278Z,3.58
2022-07-28T09:05:23.200Z,3.75
2022-07-28T09:07:54.686Z,4.40
2022-07-28T09:10:22.153Z,3.80
2022-07-28T09:12:49.075Z,4.03
2022-07-28T09:15:15.986Z,3.75
2022-07-28T09:17:43.184Z,3.67
2022-07-28T09:20:11.821Z,3.72
2022-07-28T09:22:56.343Z,3.53
2022-07-28T09:25:23.761Z,3.75
2022-07-28T09:27:51.876Z,3.58
2022-07-28T09:30:31.755Z,3.28
2022-07-28T09:33:42.028Z,3.60
2022-07-28T09:36:15.675Z,3.33
2022-07-28T09:38:42.859Z,3.30
2022-07-28T09:41:09.750Z,3.28
2022-07-28T09:43:44.828Z,3.35
2022-07-28T09:46:17.737Z,3.28
2022-07-28T09:48:51.274Z,3.13
2022-07-28T09:51:24.802Z,3.17
2022-07-28T09:53:52.401Z,3.83
2022-07-28T09:56:19.360Z,2.85
2022-07-28T09:58:58.107Z,3.25
2022-07-28T10:01:27.453Z,3.13
2022-07-28T10:04:03.995Z,2.65
2022-07-28T10:06:33.620Z,3.00
2022-07-28T10:09:03.301Z,3.70
2022-07-28T10:11:30.441Z,3.20
2022-07-28T10:14:06.133Z,3.45
2022-07-28T10:16:42.876Z,2.95
2022-07-28T10:19:09.794Z,2.97
2022-07-28T10:21:44.341Z,2.80
2022-07-28T10:24:20.006Z,2.45
2022-07-28T10:26:47.780Z,2.80
2022-07-28T10:29:17.515Z,2.60
2022-07-28T10:31:57.863Z,3.10
2022-07-28T10:34:48.899Z,3.15
2022-07-28T10:37:25.591Z,2.70
2022-07-28T10:40:09.357Z,2.83
2022-07-28T10:42:39.536Z,2.80
2022-07-28T10:45:08.039Z,2.58
2022-07-28T10:47:36.410Z,2.47
2022-07-28T10:50:04.604Z,3.05
2022-07-28T10:52:50.594Z,2.40
2022-07-28T10:55:34.181Z,2.50
2022-07-28T10:58:19.515Z,2.70
2022-07-28T11:01:02.034Z,2.53
2022-07-28T11:03:39.864Z,2.45
2022-07-28T11:06:28.765Z,2.40
2022-07-28T11:09:19.491Z,2.72
2022-07-28T11:11:53.570Z,2.72
2022-07-28T11:14:22.959Z,2.67
2022-07-28T11:17:11.710Z,2.60
2022-07-28T11:20:25.858Z,2.53
2022-07-28T11:22:33.638Z,2.40
2022-07-28T11:25:18.538Z,2.10
2022-07-28T11:27:50.394Z,2.47
2022-07-28T11:30:29.330Z,2.35
2022-07-28T11:32:57.737Z,2.40
2022-07-28T11:35:29.275Z,2.47
2022-07-28T11:38:02.089Z,2.42
2022-07-28T11:40:35.719Z,2.50
2022-07-28T11:43:22.330Z,2.20
2022-07-28T11:46:12.514Z,2.10
2022-07-28T11:48:41.521Z,2.17
2022-07-28T11:51:10.530Z,2.35
2022-07-28T11:53:37.197Z,2.55
2022-07-28T11:56:09.796Z,2.38
2022-07-28T11:58:36.987Z,2.22
2022-07-28T12:01:19.073Z,2.88
2022-07-28T12:03:56.305Z,2.28
2022-07-28T12:06:29.167Z,2.58
2022-07-28T12:09:07.171Z,2.88
2022-07-28T12:11:35.940Z,2.53
2022-07-28T12:14:08.104Z,2.50
2022-07-28T12:16:36.917Z,2.40
2022-07-28T12:19:05.630Z,2.28
2022-07-28T12:21:49.906Z,2.15
2022-07-28T12:24:27.689Z,2.30
2022-07-28T12:26:54.509Z,2.20
2022-07-28T12:29:21.748Z,2.03
2022-07-28T12:31:58.977Z,2.33
2022-07-28T12:34:28.843Z,2.60
2022-07-28T12:36:58.829Z,2.17
2022-07-28T12:39:25.961Z,2.35
2022-07-28T12:42:03.470Z,2.00
2022-07-28T12:44:49.482Z,2.28
2022-07-28T12:47:24.622Z,2.50
2022-07-28T12:50:14.922Z,2.10
2022-07-28T12:52:43.817Z,2.03
2022-07-28T12:55:25.544Z,2.20
2022-07-28T12:57:52.827Z,2.30
2022-07-28T13:00:26.264Z,2.50
2022-07-28T13:02:56.218Z,2.10
2022-07-28T13:05:31.912Z,2.15
2022-07-28T13:08:04.978Z,2.20
2022-07-28T13:10:31.909Z,2.33
2022-07-28T13:13:06.756Z,2.47
2022-07-28T13:15:33.633Z,2.05
2022-07-28T13:18:00.695Z,2.70
2022-07-28T13:20:27.675Z,2.25
2022-07-28T13:22:55.791Z,1.90
2022-07-28T13:25:22.632Z,2.38
2022-07-28T13:27:55.084Z,2.25
2022-07-28T13:30:23.513Z,2.55
2022-07-28T13:32:50.499Z,2.10
2022-07-28T13:35:18.884Z,2.00
2022-07-28T13:37:46.001Z,2.50
2022-07-28T13:40:13.166Z,2.03
2022-07-28T13:42:40.015Z,2.50
2022-07-28T13:45:21.468Z,2.40
2022-07-28T13:47:52.017Z,2.20
2022-07-28T13:50:19.602Z,2.20
2022-07-28T13:52:46.704Z,2.13
2022-07-28T13:55:19.594Z,2.33
2022-07-28T13:57:49.311Z,2.65
2022-07-28T14:00:18.035Z,1.90
2022-07-28T14:02:47.089Z,2.33
2022-07-28T14:05:14.734Z,2.00
2022-07-28T14:07:42.249Z,1.92
2022-07-28T14:10:15.821Z,2.08
2022-07-28T14:12:42.586Z,2.10
2022-07-28T14:15:13.363Z,1.90
2022-07-28T14:17:43.344Z,2.17
2022-07-28T14:20:15.337Z,2.17
2022-07-28T14:22:43.829Z,2.08
2022-07-28T14:25:11.868Z,2.45
2022-07-28T14:27:46.337Z,2.53
2022-07-28T14:30:13.237Z,2.40
2022-07-28T14:32:40.394Z,2.30
2022-07-28T14:35:07.501Z,2.30
2022-07-28T14:37:55.057Z,2.65
2022-07-28T14:40:20.926Z,2.33
2022-07-28T14:42:47.619Z,2.85
2022-07-28T14:45:14.379Z,2.05
2022-07-28T14:47:44.400Z,2.33
2022-07-28T14:50:12.692Z,2.00
2022-07-28T14:52:39.592Z,2.30
2022-07-28T14:55:07.005Z,2.75
2022-07-28T14:57:48.065Z,2.42
2022-07-28T15:00:17.198Z,2.03
2022-07-28T15:02:45.679Z,2.35
2022-07-28T15:05:12.562Z,1.80
2022-07-28T15:07:39.590Z,2.20
2022-07-28T15:10:06.694Z,2.08
2022-07-28T15:12:33.555Z,2.35
2022-07-28T15:15:00.327Z,2.47
2022-07-28T15:17:27.059Z,2.70
2022-07-28T15:19:53.825Z,2.22
2022-07-28T15:22:20.527Z,2.10
2022-07-28T15:24:53.066Z,2.30
2022-07-28T15:27:19.807Z,2.17
2022-07-28T15:29:47.560Z,2.38
2022-07-28T15:32:19.468Z,2.28
2022-07-28T15:34:49.859Z,2.10
2022-07-28T15:37:16.693Z,2.20
2022-07-28T15:39:45.283Z,2.10
2022-07-28T15:42:12.254Z,2.15
2022-07-28T15:44:39.170Z,2.63
2022-07-28T15:47:06.182Z,2.28
2022-07-28T15:49:32.980Z,2.60
2022-07-28T15:52:00.864Z,2.50
2022-07-28T15:54:28.245Z,1.90
2022-07-28T15:56:55.105Z,1.83
2022-07-28T15:59:21.886Z,2.10
2022-07-28T16:01:48.603Z,2.15
2022-07-28T16:04:15.887Z,2.42
2022-07-28T16:07:01.325Z,2.17
2022-07-28T16:09:46.198Z,2.30
2022-07-28T16:12:14.680Z,2.35
2022-07-28T16:14:42.206Z,2.25
2022-07-28T16:17:09.881Z,2.45
2022-07-28T16:19:49.068Z,2.38
2022-07-28T16:22:16.844Z,2.00
2022-07-28T16:24:43.797Z,2.28
2022-07-28T16:27:11.457Z,2.22
2022-07-28T16:29:38.209Z,2.30
2022-07-28T16:32:05.361Z,2.35
2022-07-28T16:34:32.191Z,2.38
2022-07-28T16:36:58.899Z,1.90
2022-07-28T16:39:25.701Z,1.92
2022-07-28T16:41:53.054Z,1.90
2022-07-28T16:44:20.268Z,1.80
2022-07-28T16:46:47.526Z,2.13
2022-07-28T16:49:16.078Z,2.20
2022-07-28T16:51:43.067Z,1.92
2022-07-28T16:54:09.926Z,2.20
2022-07-28T16:56:36.661Z,1.98
2022-07-28T16:59:03.716Z,2.20
2022-07-28T17:01:30.800Z,2.38
2022-07-28T17:03:57.654Z,1.88
2022-07-28T17:06:25.154Z,2.35
2022-07-28T17:08:52.046Z,1.98
2022-07-28T17:11:18.813Z,2.20
2022-07-28T17:13:45.730Z,2.00
2022-07-28T17:16:13.340Z,2.00
2022-07-28T17:18:40.482Z,2.42
2022-07-28T17:21:07.295Z,1.70
2022-07-28T17:23:35.228Z,2.05
2022-07-28T17:28:53.954Z,1.80
2022-07-28T17:31:20.889Z,1.75
2022-07-28T17:33:47.750Z,2.03
2022-07-28T17:36:15.867Z,1.85
2022-07-28T17:38:42.967Z,6.28
2022-07-28T17:41:09.862Z,2.78
2022-07-28T17:43:38.280Z,1.60
2022-07-28T17:46:10.515Z,1.83
2022-07-28T17:48:38.752Z,1.55
2022-07-28T17:51:05.895Z,1.80
2022-07-28T17:53:33.626Z,1.70
2022-07-28T17:56:08.519Z,2.05
2022-07-28T17:58:36.179Z,2.13
2022-07-28T18:01:10.417Z,2.05
2022-07-28T18:03:59.076Z,1.90
2022-07-28T18:06:34.182Z,1.90
2022-07-28T18:09:08.183Z,2.40
2022-07-28T18:11:55.513Z,1.95
2022-07-28T18:14:23.758Z,2.00
2022-07-28T18:16:50.535Z,2.25
2022-07-28T18:19:17.230Z,1.80
2022-07-28T18:21:43.956Z,1.88
2022-07-28T18:24:10.632Z,1.90
2022-07-28T18:26:37.369Z,1.80
2022-07-28T18:29:04.169Z,2.17
2022-07-28T18:31:31.012Z,1.50
2022-07-28T18:33:57.825Z,1.80
2022-07-28T18:36:24.515Z,2.30
2022-07-28T18:38:51.238Z,2.08
2022-07-28T18:41:18.010Z,1.88
2022-07-28T18:43:44.737Z,2.10
2022-07-28T18:46:11.597Z,1.90
2022-07-28T18:48:38.436Z,2.15
2022-07-28T18:51:05.586Z,2.00
2022-07-28T18:53:32.503Z,1.98
2022-07-28T18:55:59.301Z,1.90
2022-07-28T18:58:26.074Z,2.10
2022-07-28T19:00:52.897Z,1.90
2022-07-28T19:03:19.700Z,2.10
2022-07-28T19:05:46.680Z,2.00
2022-07-28T19:08:13.511Z,1.73
2022-07-28T19:10:40.416Z,2.00
2022-07-28T19:13:12.834Z,1.60
2022-07-28T19:15:40.237Z,1.83
2022-07-28T19:18:08.867Z,1.83
2022-07-28T19:20:39.587Z,1.90
2022-07-28T19:23:06.459Z,1.92
2022-07-28T19:25:35.859Z,2.22
2022-07-28T19:28:03.276Z,2.15
2022-07-28T19:30:31.982Z,2.00
2022-07-28T19:32:59.158Z,2.00
2022-07-28T19:35:26.046Z,2.00
2022-07-28T19:37:52.939Z,1.90
2022-07-28T19:40:19.871Z,2.00
2022-07-28T19:42:48.399Z,2.03
2022-07-28T19:45:15.394Z,2.10
2022-07-28T19:47:42.679Z,2.20
2022-07-28T19:50:09.791Z,2.30
2022-07-28T19:52:37.690Z,1.80
2022-07-28T19:55:05.916Z,3.47
2022-07-28T19:57:34.436Z,2.55
2022-07-28T20:00:04.557Z,3.70
2022-07-28T20:02:31.393Z,3.05
2022-07-28T20:04:58.163Z,2.92
2022-07-28T20:07:25.282Z,2.67
2022-07-28T20:09:52.009Z,3.05
2022-07-28T20:12:18.811Z,2.90
2022-07-28T20:14:45.547Z,2.65
2022-07-28T20:17:29.574Z,2.55
2022-07-28T20:19:59.356Z,2.95
2022-07-28T20:22:26.232Z,3.00
2022-07-28T20:24:52.973Z,3.65
2022-07-28T20:27:19.682Z,3.60
2022-07-28T20:29:46.452Z,3.53
2022-07-28T20:32:13.261Z,3.80
2022-07-28T20:34:40.165Z,3.42
2022-07-28T20:37:07.141Z,3.35
2022-07-28T20:39:53.886Z,3.58
2022-07-28T20:42:20.708Z,3.40
2022-07-28T20:44:47.728Z,3.08
2022-07-28T20:47:14.571Z,3.35
2022-07-28T20:49:43.416Z,3.50
2022-07-28T20:52:10.648Z,3.88
2022-07-28T20:54:37.430Z,3.80
2022-07-28T20:57:04.321Z,3.47
2022-07-28T20:59:31.427Z,3.73
2022-07-28T21:01:58.405Z,3.43
2022-07-28T21:04:26.515Z,3.90
2022-07-28T21:07:00.790Z,4.23
2022-07-28T21:09:29.368Z,4.50
2022-07-28T21:11:56.331Z,4.70
2022-07-28T21:14:23.031Z,6.03
2022-07-28T21:16:49.971Z,5.40
2022-07-28T21:19:16.860Z,5.53
2022-07-28T21:21:43.569Z,5.57
2022-07-28T21:24:10.358Z,5.47
2022-07-28T21:26:37.114Z,5.00
2022-07-28T21:32:02.354Z,4.50
2022-07-28T21:34:28.423Z,5.57
2022-07-28T21:36:55.237Z,5.37
2022-07-28T21:39:22.000Z,4.43
2022-07-28T21:41:48.892Z,4.40
2022-07-28T21:44:15.956Z,4.50
2022-07-28T21:46:45.593Z,4.20
2022-07-28T21:49:12.728Z,4.53
2022-07-28T21:51:39.904Z,4.27
2022-07-28T21:54:07.038Z,3.90
2022-07-28T21:56:34.843Z,5.03
2022-07-28T21:59:02.297Z,5.10
2022-07-28T22:01:29.445Z,5.30
2022-07-28T22:03:56.774Z,4.40
2022-07-28T22:06:23.579Z,4.30
2022-07-28T22:08:53.518Z,4.30
2022-07-28T22:11:21.615Z,5.03
2022-07-28T22:13:48.573Z,4.40
2022-07-28T22:16:15.808Z,3.90
2022-07-28T22:18:42.619Z,4.17
2022-07-28T22:21:09.488Z,4.33
2022-07-28T22:23:36.278Z,4.37
2022-07-28T22:26:03.198Z,4.37
2022-07-28T22:28:30.613Z,4.60
2022-07-28T22:31:09.284Z,4.43
2022-07-28T22:33:39.538Z,4.00
2022-07-28T22:36:08.567Z,3.43
2022-07-28T22:38:35.858Z,4.40
2022-07-28T22:41:02.739Z,3.50
2022-07-28T22:43:32.198Z,3.90
2022-07-28T22:45:59.069Z,3.57
2022-07-28T22:48:25.799Z,4.67
2022-07-28T22:50:52.472Z,4.23
2022-07-28T22:53:19.197Z,3.60
2022-07-28T22:55:45.893Z,4.00
2022-07-28T22:58:12.554Z,3.00
2022-07-28T23:00:39.414Z,3.30
2022-07-28T23:03:06.272Z,3.87
2022-07-28T23:05:33.856Z,4.03
2022-07-28T23:08:00.545Z,4.20
2022-07-28T23:10:29.461Z,4.10
2022-07-28T23:12:58.584Z,3.87
2022-07-28T23:15:39.385Z,4.63
2022-07-28T23:18:07.620Z,4.17
2022-07-28T23:20:34.304Z,4.13
2022-07-28T23:23:00.964Z,4.10
2022-07-28T23:25:28.470Z,3.77
2022-07-28T23:27:55.346Z,3.47
2022-07-28T23:30:22.034Z,4.40
2022-07-28T23:32:52.441Z,3.50
2022-07-28T23:35:19.469Z,4.07
2022-07-28T23:37:46.208Z,4.10
2022-07-28T23:40:13.352Z,4.07
2022-07-28T23:42:40.104Z,4.50
2022-07-28T23:45:07.660Z,4.77
2022-07-28T23:47:34.416Z,4.47
2022-07-28T23:50:02.037Z,4.70
2022-07-28T23:52:29.083Z,5.93
2022-07-28T23:54:55.953Z,3.90
2022-07-28T23:57:22.681Z,4.57
2022-07-28T23:59:49.413Z,6.20
